Time;durP1;ratioP1;P1;durP2;ratioP2;P2;SDS_P1;SDS_P2;PMS_P1;PMS_P2;Temp;Humidity;BMP_temperature;BMP_pressure;BME280_temperature;BME280_humidity;BME280_pressure;Samples;Min_cycle;Max_cycle;Signal;HPM_P1;HPM_P2
2022/01/30 00:02:09;;;;;;;11.27;7.97;;;;;;;1.63;67.75;100098.19;5091552;28;20541;-72
2022/01/30 00:04:36;;;;;;;8.87;8.17;;;;;;;1.51;67.77;100097.34;5091571;28;20444;-73
2022/01/30 00:07:05;;;;;;;8.50;7.80;;;;;;;1.52;67.60;100098.22;5091818;28;20437;-73
2022/01/30 00:09:32;;;;;;;7.93;7.33;;;;;;;1.50;67.88;100098.31;5091697;28;20944;-74
2022/01/30 00:12:01;;;;;;;7.63;7.03;;;;;;;1.44;67.57;100095.38;5092312;28;20490;-74
2022/01/30 00:14:32;;;;;;;7.90;7.27;;;;;;;1.48;67.16;100095.03;5091793;28;20432;-73
2022/01/30 00:17:05;;;;;;;7.87;7.27;;;;;;;1.36;67.83;100095.16;5092661;28;20507;-74
2022/01/30 00:19:37;;;;;;;7.77;7.17;;;;;;;1.38;67.86;100082.81;5091525;28;20958;-74
2022/01/30 00:22:16;;;;;;;8.63;7.70;;;;;;;1.37;68.17;100087.19;5091458;28;21021;-74
2022/01/30 00:24:49;;;;;;;7.30;6.80;;;;;;;1.42;68.00;100084.22;5091582;28;20425;-74
2022/01/30 00:27:19;;;;;;;7.73;7.13;;;;;;;1.51;67.88;100081.66;5092272;28;20758;-74
2022/01/30 00:29:46;;;;;;;7.40;6.90;;;;;;;1.56;67.51;100092.63;5096545;28;20440;-74
2022/01/30 00:32:13;;;;;;;8.93;8.03;;;;;;;1.59;67.27;100094.94;5095401;28;20452;-73
2022/01/30 00:34:39;;;;;;;9.80;8.67;;;;;;;1.65;66.93;100097.09;5095152;28;20624;-74
2022/01/30 00:37:08;;;;;;;9.97;8.87;;;;;;;1.64;66.80;100105.91;5095330;28;20445;-75
2022/01/30 00:39:34;;;;;;;9.27;8.37;;;;;;;1.67;67.23;100099.59;5095974;28;20429;-72
2022/01/30 00:42:01;;;;;;;9.27;8.37;;;;;;;1.61;66.97;100087.81;5095374;28;20468;-74
2022/01/30 00:44:28;;;;;;;8.63;7.87;;;;;;;1.52;66.48;100085.13;5095310;28;20440;-74
2022/01/30 00:46:55;;;;;;;7.00;6.50;;;;;;;1.51;66.32;100084.28;5094797;28;20441;-72
2022/01/30 00:49:22;;;;;;;7.10;6.40;;;;;;;1.51;66.69;100076.41;5095080;28;20445;-74
2022/01/30 00:51:49;;;;;;;7.33;6.63;;;;;;;1.46;66.35;100083.00;5094689;28;20500;-74
2022/01/30 00:54:17;;;;;;;6.60;6.10;;;;;;;1.43;66.62;100076.22;5094670;28;20437;-75
2022/01/30 00:56:44;;;;;;;7.03;6.43;;;;;;;1.50;66.43;100072.16;5094596;28;20933;-75
2022/01/30 00:59:10;;;;;;;7.10;6.70;;;;;;;1.36;66.24;100054.13;5095147;28;20498;-72
2022/01/30 01:01:37;;;;;;;8.30;7.50;;;;;;;1.36;66.57;100054.13;5094406;28;20472;-74
2022/01/30 01:04:04;;;;;;;7.37;6.77;;;;;;;1.29;66.89;100042.50;5094452;28;20493;-73
2022/01/30 01:06:31;;;;;;;7.33;6.83;;;;;;;1.29;66.70;100041.66;5094758;28;20433;-75
2022/01/30 01:09:01;;;;;;;7.47;6.87;;;;;;;1.23;66.96;100037.78;5094906;28;20472;-72
2022/01/30 01:12:06;;;;;;;9.13;8.23;;;;;;;1.20;67.05;100024.09;5094548;28;20456;-76
2022/01/30 01:25:21;;;;;;;9.70;7.80;;;;;;;1.20;66.29;99987.47;5094264;28;20497;-74
2022/01/30 01:27:49;;;;;;;7.97;6.97;;;;;;;0.96;66.71;99947.59;5093933;28;21001;-72
2022/01/30 01:30:16;;;;;;;8.70;7.83;;;;;;;1.08;66.97;99971.00;5094029;28;20824;-74
2022/01/30 01:32:42;;;;;;;9.23;7.93;;;;;;;1.03;67.28;99972.31;5097392;28;20504;-72
2022/01/30 01:35:09;;;;;;;8.83;7.90;;;;;;;1.04;67.14;99968.72;5114838;28;20468;-75
2022/01/30 01:37:36;;;;;;;10.50;8.87;;;;;;;0.94;67.44;99967.84;5114181;28;20496;-73
2022/01/30 01:40:04;;;;;;;13.43;9.33;;;;;;;0.98;67.43;99964.81;5113282;28;20473;-74
2022/01/30 01:42:34;;;;;;;10.57;8.10;;;;;;;1.05;66.90;99957.34;5114112;28;20437;-71
2022/01/30 01:45:02;;;;;;;15.47;8.80;;;;;;;1.09;67.15;99946.50;5114057;28;20493;-71
2022/01/30 01:47:32;;;;;;;8.73;7.80;;;;;;;1.21;66.27;99940.25;5115148;28;20499;-72
2022/01/30 01:49:59;;;;;;;8.53;7.73;;;;;;;1.26;66.38;99934.66;5113980;28;20971;-72
2022/01/30 01:52:26;;;;;;;10.03;7.87;;;;;;;1.43;65.61;99939.31;5113890;28;20959;-72
2022/01/30 01:54:55;;;;;;;9.30;8.30;;;;;;;1.45;65.09;99937.38;5115055;28;20437;-74
2022/01/30 01:57:23;;;;;;;12.20;9.07;;;;;;;1.49;65.51;99938.78;5113852;28;20461;-74
2022/01/30 01:59:50;;;;;;;9.10;8.20;;;;;;;1.42;64.71;99930.63;5113718;28;20440;-71
2022/01/30 02:02:18;;;;;;;9.67;8.37;;;;;;;1.38;65.37;99926.59;5113882;28;20484;-73
2022/01/30 02:04:46;;;;;;;17.37;9.37;;;;;;;1.45;65.25;99922.53;5113722;28;21007;-71
2022/01/30 02:07:40;;;;;;;9.73;7.97;;;;;;;1.36;65.31;99912.81;5114773;28;20502;-71
2022/01/30 02:10:16;;;;;;;9.00;8.20;;;;;;;1.35;65.40;99924.22;5113799;28;20434;-73
2022/01/30 02:12:48;;;;;;;8.43;7.80;;;;;;;1.20;65.88;99925.53;5113843;28;20432;-73
2022/01/30 02:15:34;;;;;;;8.23;7.43;;;;;;;0.99;66.13;99919.44;5114635;28;20781;-73
2022/01/30 02:26:17;;;;;;;8.80;8.00;;;;;;;0.59;68.35;99910.53;5113709;28;20557;-73
2022/01/30 02:28:44;;;;;;;8.27;7.57;;;;;;;0.50;68.44;99919.13;5113547;28;20428;-72
2022/01/30 02:31:14;;;;;;;8.60;7.90;;;;;;;0.38;69.08;99899.19;5113069;28;20440;-74
2022/01/30 02:33:41;;;;;;;7.63;7.13;;;;;;;0.40;69.25;99905.13;5113495;28;20424;-74
2022/01/30 02:36:08;;;;;;;8.83;8.03;;;;;;;0.33;69.36;99898.75;5113190;28;20436;-73
2022/01/30 02:38:36;;;;;;;9.83;8.93;;;;;;;0.16;69.82;99901.81;5112999;28;20506;-73
2022/01/30 02:41:02;;;;;;;8.43;7.83;;;;;;;0.15;70.03;99897.56;5113497;28;20552;-73
2022/01/30 02:43:37;;;;;;;8.53;7.83;;;;;;;0.12;70.10;99894.38;5112896;28;20432;-73
2022/01/30 02:46:09;;;;;;;8.50;7.83;;;;;;;0.10;70.05;99886.66;5113276;28;20431;-73
2022/01/30 02:48:48;;;;;;;7.90;7.30;;;;;;;0.08;70.35;99893.75;5113690;28;20819;-73
2022/01/30 02:51:18;;;;;;;7.90;7.30;;;;;;;0.13;70.28;99883.81;5112441;28;20923;-72
2022/01/30 02:53:54;;;;;;;8.10;7.50;;;;;;;0.14;70.22;99877.63;5113686;28;20489;-72
2022/01/30 02:56:21;;;;;;;10.03;7.37;;;;;;;0.19;70.29;99872.88;5113877;28;20480;-72
2022/01/30 02:58:48;;;;;;;8.63;7.93;;;;;;;0.13;70.22;99870.75;5112977;28;20438;-73
2022/01/30 03:01:15;;;;;;;8.17;7.37;;;;;;;0.03;70.58;99854.97;5112547;28;20502;-72
2022/01/30 03:03:42;;;;;;;7.83;7.03;;;;;;;0.06;70.64;99859.13;5112919;28;20501;-72
2022/01/30 03:06:08;;;;;;;7.20;6.60;;;;;;;0.04;70.85;99861.00;5112897;28;20438;-72
2022/01/30 03:08:35;;;;;;;7.90;7.17;;;;;;;0.09;70.32;99854.47;5112793;28;20437;-72
2022/01/30 03:11:03;;;;;;;7.70;7.10;;;;;;;0.03;70.74;99859.34;5112498;28;20440;-72
2022/01/30 03:13:30;;;;;;;6.93;6.43;;;;;;;0.03;70.65;99853.31;5112772;28;20510;-72
2022/01/30 03:16:00;;;;;;;8.20;7.57;;;;;;;-0.05;70.62;99856.53;5113300;28;20436;-73
2022/01/30 03:18:27;;;;;;;8.13;7.33;;;;;;;-0.12;70.84;99844.91;5113628;28;20440;-72
2022/01/30 03:20:53;;;;;;;7.87;7.13;;;;;;;-0.15;71.12;99835.53;5112752;28;20498;-72
2022/01/30 03:23:20;;;;;;;8.30;7.50;;;;;;;-0.19;71.28;99843.72;5112921;28;20489;-72
2022/01/30 03:25:53;;;;;;;8.37;7.67;;;;;;;-0.18;71.49;99838.41;5112688;28;20425;-73
2022/01/30 03:28:21;;;;;;;7.87;7.17;;;;;;;-0.20;71.06;99823.81;5113128;28;20790;-72
2022/01/30 03:30:52;;;;;;;8.60;7.83;;;;;;;-0.11;70.87;99823.09;5112594;28;20492;-72
2022/01/30 03:33:19;;;;;;;8.23;7.43;;;;;;;-0.14;71.23;99815.47;5113410;28;20516;-72
2022/01/30 03:35:46;;;;;;;9.00;7.50;;;;;;;-0.09;70.80;99818.56;5113147;28;20555;-73
2022/01/30 03:38:14;;;;;;;7.27;6.67;;;;;;;-0.08;71.17;99812.41;5112220;28;21006;-74
2022/01/30 03:40:43;;;;;;;8.33;7.53;;;;;;;-0.11;70.58;99804.81;5112398;28;20428;-73
2022/01/30 03:43:10;;;;;;;8.63;7.67;;;;;;;-0.04;70.40;99801.56;5112424;28;20429;-74
2022/01/30 03:45:38;;;;;;;7.43;6.93;;;;;;;0.01;70.04;99809.06;5112486;28;20440;-74
2022/01/30 03:48:05;;;;;;;8.17;7.50;;;;;;;-0.07;70.17;99808.84;5112434;28;20428;-74
2022/01/30 03:50:32;;;;;;;8.07;7.37;;;;;;;-0.02;69.84;99809.28;5112094;28;21016;-73
2022/01/30 03:52:59;;;;;;;8.00;7.20;;;;;;;0.05;69.48;99805.25;5113149;28;20476;-73
2022/01/30 03:55:26;;;;;;;8.73;7.83;;;;;;;0.01;69.45;99799.44;5112073;28;20490;-73
2022/01/30 03:57:53;;;;;;;9.80;8.87;;;;;;;0.04;69.32;99793.97;5112487;28;20440;-72
2022/01/30 04:00:20;;;;;;;13.50;10.43;;;;;;;0.04;68.70;99785.28;5112249;28;20440;-72
2022/01/30 04:02:48;;;;;;;15.20;11.47;;;;;;;0.01;69.06;99781.16;5113689;28;20479;-73
2022/01/30 04:05:15;;;;;;;11.23;10.07;;;;;;;-0.03;69.26;99782.34;5116071;28;20496;-73
2022/01/30 04:07:42;;;;;;;10.50;9.43;;;;;;;-0.12;69.33;99777.88;5116281;28;20481;-72
2022/01/30 04:10:09;;;;;;;10.17;9.27;;;;;;;-0.09;69.59;99782.00;5115918;28;20860;-72
2022/01/30 04:12:36;;;;;;;11.10;8.83;;;;;;;-0.22;69.53;99776.09;5115895;28;20447;-72
2022/01/30 04:15:04;;;;;;;10.83;8.43;;;;;;;-0.28;69.80;99784.44;5116388;28;20768;-73
2022/01/30 04:17:31;;;;;;;9.27;8.37;;;;;;;-0.21;70.08;99775.16;5116079;28;20432;-73
2022/01/30 04:19:59;;;;;;;10.37;8.37;;;;;;;-0.29;69.92;99774.91;5115309;28;20440;-73
2022/01/30 04:22:26;;;;;;;10.90;9.00;;;;;;;-0.31;69.86;99772.47;5115021;28;20475;-72
2022/01/30 04:24:53;;;;;;;11.13;9.43;;;;;;;-0.35;70.06;99772.81;5115486;28;20436;-73
2022/01/30 04:27:20;;;;;;;10.57;9.43;;;;;;;-0.31;70.04;99763.78;5115144;28;20440;-73
2022/01/30 04:29:47;;;;;;;10.17;9.17;;;;;;;-0.41;69.85;99770.66;5115030;28;20535;-72
2022/01/30 04:32:15;;;;;;;9.53;8.67;;;;;;;-0.39;69.93;99774.00;5114653;28;20816;-73
2022/01/30 04:34:44;;;;;;;10.00;9.10;;;;;;;-0.41;69.96;99778.50;5114733;28;20592;-72
2022/01/30 04:37:20;;;;;;;9.87;8.97;;;;;;;-0.44;69.87;99776.16;5114813;28;20515;-73
2022/01/30 04:53:38;;;;;;;7.73;7.03;;;;;;;-0.67;70.05;99784.91;5115544;28;20822;-74
2022/01/30 04:56:45;;;;;;;8.43;7.73;;;;;;;-0.70;69.96;99792.97;5115074;28;20940;-74
2022/01/30 04:59:14;;;;;;;7.70;6.90;;;;;;;-0.76;69.96;99796.06;5115418;28;20907;-74
2022/01/30 05:01:55;;;;;;;7.17;6.67;;;;;;;-0.85;70.35;99799.38;5114887;28;20990;-74
2022/01/30 05:04:28;;;;;;;7.70;7.00;;;;;;;-0.83;70.32;99800.91;5114952;28;20447;-72
2022/01/30 05:07:27;;;;;;;6.97;6.47;;;;;;;-0.85;70.31;99779.34;5115139;28;20436;-72
2022/01/30 05:09:44;;;;;;;7.33;6.63;;;;;;;-0.80;70.18;99792.03;5114924;28;20433;-72
2022/01/30 05:12:13;;;;;;;7.03;6.53;;;;;;;-0.81;69.91;99779.94;5115023;28;20459;-72
2022/01/30 05:14:40;;;;;;;7.00;6.50;;;;;;;-0.74;69.93;99783.72;5114692;28;20439;-72
2022/01/30 05:17:07;;;;;;;7.00;6.30;;;;;;;-0.72;69.88;99781.84;5114701;28;20440;-72
2022/01/30 05:19:35;;;;;;;7.13;6.50;;;;;;;-0.75;69.77;99776.84;5114917;28;20493;-72
2022/01/30 05:22:02;;;;;;;6.73;6.23;;;;;;;-0.70;69.80;99753.84;5114808;28;20467;-72
2022/01/30 05:24:29;;;;;;;6.80;6.20;;;;;;;-0.67;69.56;99751.84;5114969;28;20524;-72
2022/01/30 05:26:58;;;;;;;7.70;7.07;;;;;;;-0.59;68.81;99756.47;5114459;28;20492;-72
2022/01/30 05:29:25;;;;;;;8.03;7.00;;;;;;;-0.55;68.68;99742.25;5115254;28;20512;-72
2022/01/30 05:31:52;;;;;;;7.83;7.13;;;;;;;-0.53;68.30;99740.34;5114938;28;20440;-73
2022/01/30 05:34:19;;;;;;;7.83;7.07;;;;;;;-0.42;67.66;99722.91;5114339;28;20471;-73
2022/01/30 05:36:47;;;;;;;8.63;7.83;;;;;;;-0.33;67.53;99713.50;5114263;28;20467;-73
2022/01/30 05:39:14;;;;;;;11.77;9.20;;;;;;;-0.51;67.59;99660.19;5114723;28;20436;-72
2022/01/30 05:41:41;;;;;;;8.07;7.37;;;;;;;-0.12;67.25;99690.91;5114026;28;20480;-72
2022/01/30 05:44:13;;;;;;;8.53;7.77;;;;;;;0.07;66.88;99685.84;5114433;28;20443;-73
2022/01/30 05:46:47;;;;;;;7.37;6.80;;;;;;;0.24;66.21;99679.25;5114360;28;20441;-73
2022/01/30 05:49:15;;;;;;;8.90;7.90;;;;;;;0.34;65.93;99669.69;5113942;28;20440;-73
2022/01/30 05:51:42;;;;;;;9.13;8.30;;;;;;;0.41;66.05;99655.16;5114190;28;20446;-72
2022/01/30 05:54:09;;;;;;;9.60;8.80;;;;;;;0.44;65.10;99650.50;5113814;28;20437;-72
2022/01/30 05:56:37;;;;;;;9.33;8.53;;;;;;;0.45;65.28;99639.06;5114150;28;20436;-72
2022/01/30 05:59:05;;;;;;;8.70;7.77;;;;;;;0.35;65.09;99624.31;5114149;28;20450;-72
2022/01/30 06:01:33;;;;;;;27.57;15.83;;;;;;;0.36;64.68;99628.59;5114556;28;20493;-73
2022/01/30 06:03:59;;;;;;;32.03;17.43;;;;;;;0.33;64.28;99621.00;5113702;28;20892;-72
2022/01/30 06:06:26;;;;;;;26.83;14.53;;;;;;;0.50;63.97;99616.03;5113899;28;20437;-73
2022/01/30 06:09:01;;;;;;;11.80;10.00;;;;;;;0.79;63.59;99608.31;5113590;28;20815;-74
2022/01/30 06:11:28;;;;;;;15.07;10.23;;;;;;;1.09;61.61;99609.09;5113655;28;20495;-73
2022/01/30 06:13:55;;;;;;;32.00;14.80;;;;;;;1.16;60.45;99605.00;5113717;28;20436;-73
2022/01/30 06:16:21;;;;;;;25.47;12.33;;;;;;;1.30;59.42;99601.97;5113796;28;20872;-71
2022/01/30 06:18:49;;;;;;;44.07;18.40;;;;;;;1.55;59.60;99604.06;5113683;28;20436;-70
2022/01/30 06:21:16;;;;;;;47.80;22.17;;;;;;;1.76;58.45;99594.31;5113201;28;21014;-71
2022/01/30 06:23:43;;;;;;;25.87;14.87;;;;;;;2.06;56.46;99591.53;5112990;28;20567;-69
2022/01/30 06:26:09;;;;;;;17.67;11.90;;;;;;;2.40;54.98;99608.44;5113056;28;20485;-69
2022/01/30 06:28:36;;;;;;;25.80;13.57;;;;;;;2.25;54.53;99615.06;5113445;28;20428;-69
2022/01/30 06:31:03;;;;;;;19.43;11.30;;;;;;;2.45;54.16;99626.38;5113095;28;21019;-68
2022/01/30 06:33:29;;;;;;;21.07;12.80;;;;;;;2.56;54.38;99632.25;5113354;28;20440;-68
2022/01/30 06:35:58;;;;;;;46.87;21.23;;;;;;;2.83;53.38;99642.81;5113875;28;20533;-74
2022/01/30 06:38:24;;;;;;;23.93;12.80;;;;;;;3.19;53.14;99638.50;5113531;28;20951;-73
2022/01/30 06:40:51;;;;;;;30.13;13.07;;;;;;;3.69;51.79;99648.44;5112824;28;20504;-74
2022/01/30 06:43:18;;;;;;;32.97;15.57;;;;;;;3.98;50.82;99643.78;5112742;28;20495;-74
2022/01/30 06:45:45;;;;;;;14.90;9.43;;;;;;;4.03;50.60;99652.03;5112892;28;20432;-74
2022/01/30 06:48:11;;;;;;;14.10;9.67;;;;;;;3.78;49.92;99646.69;5112522;28;20202;-76
2022/01/30 06:50:38;;;;;;;10.67;9.53;;;;;;;3.82;50.09;99638.38;5113195;28;20190;-73
2022/01/30 06:53:06;;;;;;;15.57;11.37;;;;;;;3.82;50.40;99646.25;5110129;28;21181;-72
2022/01/30 06:55:33;;;;;;;17.47;10.57;;;;;;;3.98;50.73;99654.31;5113001;28;20488;-67
2022/01/30 06:57:59;;;;;;;8.83;7.93;;;;;;;4.02;50.05;99645.13;5112498;28;20239;-66
2022/01/30 07:00:26;;;;;;;7.80;7.10;;;;;;;4.22;52.55;99657.13;5112476;28;20657;-67
2022/01/30 07:02:53;;;;;;;9.53;8.40;;;;;;;4.26;49.94;99653.22;5095855;28;20988;-66
2022/01/30 07:05:21;;;;;;;8.77;7.53;;;;;;;4.38;49.67;99645.91;5091971;28;20625;-68
2022/01/30 07:07:52;;;;;;;8.30;7.60;;;;;;;4.36;48.96;99648.69;5091818;28;20195;-68
2022/01/30 07:10:21;;;;;;;8.33;7.17;;;;;;;4.41;48.94;99640.38;5091789;28;20198;-69
2022/01/30 07:12:47;;;;;;;16.73;8.03;;;;;;;4.62;48.60;99648.72;5091829;28;20203;-68
2022/01/30 07:15:15;;;;;;;11.70;9.03;;;;;;;4.60;47.90;99642.78;5092738;28;20202;-68
2022/01/30 07:17:42;;;;;;;12.93;7.90;;;;;;;4.76;47.07;99635.81;5092046;28;20187;-67
2022/01/30 07:20:10;;;;;;;11.20;8.43;;;;;;;5.09;47.89;99640.28;5092124;28;20194;-70
2022/01/30 07:22:37;;;;;;;8.20;7.10;;;;;;;4.93;47.20;99632.28;5090728;28;20280;-71
2022/01/30 07:25:07;;;;;;;15.47;7.20;;;;;;;5.05;45.83;99636.31;5096838;28;20198;-68
2022/01/30 07:27:35;;;;;;;7.40;6.60;;;;;;;5.40;44.55;99633.47;5090637;28;20187;-67
2022/01/30 07:30:02;;;;;;;12.07;6.30;;;;;;;5.41;43.42;99616.69;5089365;28;20191;-66
2022/01/30 07:32:29;;;;;;;6.70;6.20;;;;;;;5.67;42.78;99603.41;5089984;28;20196;-67
2022/01/30 07:34:56;;;;;;;6.13;5.63;;;;;;;5.85;41.56;99605.94;5091876;28;20304;-67
2022/01/30 07:37:23;;;;;;;6.57;5.53;;;;;;;6.26;40.52;99591.75;5093616;28;20188;-66
2022/01/30 07:39:50;;;;;;;7.40;6.80;;;;;;;6.91;39.29;99585.38;5094000;28;20196;-68
2022/01/30 07:42:18;;;;;;;8.03;7.17;;;;;;;7.11;38.53;99581.31;5095414;28;20322;-69
2022/01/30 07:44:47;;;;;;;8.87;5.90;;;;;;;7.02;37.86;99579.72;5096019;28;20195;-68
2022/01/30 07:47:15;;;;;;;11.63;8.57;;;;;;;7.17;38.13;99588.53;5095539;28;20551;-67
2022/01/30 07:49:46;;;;;;;7.07;5.93;;;;;;;7.50;37.57;99579.44;5095201;28;20575;-67
2022/01/30 07:52:13;;;;;;;6.03;5.37;;;;;;;7.41;37.36;99586.63;5094504;28;20192;-70
2022/01/30 07:54:39;;;;;;;6.90;6.30;;;;;;;7.42;38.13;99590.91;5095076;28;20195;-66
2022/01/30 07:57:06;;;;;;;7.20;6.00;;;;;;;7.34;37.40;99580.38;5095494;28;20194;-66
2022/01/30 07:59:33;;;;;;;9.63;5.10;;;;;;;6.91;37.56;99585.38;5095181;28;20257;-67
2022/01/30 08:02:01;;;;;;;5.33;4.57;;;;;;;6.79;38.81;99584.06;5096174;28;20191;-68
2022/01/30 08:04:28;;;;;;;10.63;5.30;;;;;;;6.71;38.85;99574.38;5095171;28;20191;-68
2022/01/30 08:06:55;;;;;;;5.93;5.43;;;;;;;6.55;38.83;99576.22;5095833;28;20188;-66
2022/01/30 08:09:22;;;;;;;9.87;5.47;;;;;;;6.57;38.59;99579.53;5095138;28;20201;-66
2022/01/30 08:11:48;;;;;;;4.93;4.63;;;;;;;6.45;38.59;99570.31;5095435;28;20240;-67
2022/01/30 08:14:15;;;;;;;5.90;5.00;;;;;;;6.45;38.51;99570.31;5095459;28;20244;-66
2022/01/30 08:16:42;;;;;;;5.83;5.37;;;;;;;6.23;39.22;99560.44;5095164;28;20200;-66
2022/01/30 08:19:10;;;;;;;5.53;5.20;;;;;;;6.30;39.21;99546.44;5095252;28;20187;-66
2022/01/30 08:21:36;;;;;;;6.03;5.53;;;;;;;6.24;39.17;99535.75;5095551;28;20195;-66
2022/01/30 08:24:03;;;;;;;7.70;7.00;;;;;;;6.32;39.12;99533.09;5095135;28;20298;-66
2022/01/30 08:26:30;;;;;;;12.73;6.83;;;;;;;6.28;39.02;99521.22;5094942;28;20196;-67
2022/01/30 08:28:57;;;;;;;7.47;6.77;;;;;;;6.30;39.46;99504.25;5094797;28;20245;-66
2022/01/30 08:31:24;;;;;;;13.83;9.67;;;;;;;6.47;39.11;99512.91;5094796;28;20191;-67
2022/01/30 08:33:50;;;;;;;13.43;9.47;;;;;;;6.56;38.98;99525.91;5094520;28;20195;-66
2022/01/30 08:36:18;;;;;;;15.43;10.27;;;;;;;6.44;39.15;99529.06;5095905;28;20183;-66
2022/01/30 08:38:45;;;;;;;17.27;11.50;;;;;;;6.40;40.09;99538.34;5094617;28;20198;-66
2022/01/30 08:41:12;;;;;;;19.03;10.73;;;;;;;6.35;40.48;99543.28;5094671;28;20199;-66
2022/01/30 08:43:38;;;;;;;8.90;8.00;;;;;;;6.14;41.44;99543.00;5094464;28;20218;-65
2022/01/30 08:46:05;;;;;;;24.57;12.77;;;;;;;6.10;41.96;99542.50;5094629;28;20195;-66
2022/01/30 08:48:33;;;;;;;19.07;12.37;;;;;;;6.13;41.39;99528.16;5093744;28;20248;-66
2022/01/30 08:51:00;;;;;;;16.47;9.50;;;;;;;6.01;41.64;99518.94;5095289;28;20267;-66
2022/01/30 08:53:28;;;;;;;13.50;9.57;;;;;;;5.78;41.26;99492.41;5094659;28;20192;-66
2022/01/30 08:55:55;;;;;;;17.70;10.57;;;;;;;5.67;40.87;99480.41;5094399;28;20684;-67
2022/01/30 08:58:21;;;;;;;32.20;15.60;;;;;;;5.70;40.77;99495.03;5094644;28;20200;-67
2022/01/30 09:00:48;;;;;;;29.67;14.33;;;;;;;5.74;39.85;99493.72;5095384;28;20195;-66
2022/01/30 09:03:15;;;;;;;12.00;7.60;;;;;;;5.79;39.65;99494.88;5094008;28;20216;-66
2022/01/30 09:05:42;;;;;;;8.40;5.87;;;;;;;5.87;39.62;99488.00;5094620;28;20384;-66
2022/01/30 09:08:08;;;;;;;9.27;5.60;;;;;;;5.81;39.88;99483.38;5094419;28;20221;-66
2022/01/30 09:10:38;;;;;;;6.80;6.17;;;;;;;5.91;39.93;99491.94;5094001;28;20739;-66
2022/01/30 09:13:06;;;;;;;6.07;5.57;;;;;;;5.96;39.26;99490.44;5095080;28;20346;-67
2022/01/30 09:15:38;;;;;;;7.40;6.57;;;;;;;5.78;39.85;99473.97;5093796;28;20195;-67
2022/01/30 09:18:08;;;;;;;7.90;6.27;;;;;;;5.86;39.74;99474.00;5094417;28;20220;-66
2022/01/30 09:20:35;;;;;;;5.80;4.90;;;;;;;6.01;39.09;99458.31;5093859;28;20615;-67
2022/01/30 09:23:01;;;;;;;8.40;5.83;;;;;;;6.13;39.35;99449.06;5093706;28;20216;-66
2022/01/30 09:25:28;;;;;;;6.53;5.97;;;;;;;6.04;39.12;99453.50;5094449;28;20616;-67
2022/01/30 09:27:56;;;;;;;9.87;6.07;;;;;;;6.17;40.16;99445.09;5094003;28;20203;-67
2022/01/30 09:30:23;;;;;;;12.63;7.73;;;;;;;6.18;39.81;99449.38;5093200;28;20191;-66
2022/01/30 09:32:50;;;;;;;13.27;9.23;;;;;;;6.14;39.65;99437.50;5093499;28;20195;-66
2022/01/30 09:35:16;;;;;;;10.20;7.90;;;;;;;6.25;39.92;99439.78;5093446;28;20222;-67
2022/01/30 09:37:43;;;;;;;12.63;8.43;;;;;;;6.22;40.30;99442.75;5093225;28;20680;-66
2022/01/30 09:40:10;;;;;;;22.83;11.83;;;;;;;6.33;39.75;99440.56;5093466;28;20256;-66
2022/01/30 09:42:39;;;;;;;9.13;8.13;;;;;;;6.31;38.57;99437.28;5093596;28;20733;-66
2022/01/30 09:45:08;;;;;;;7.13;6.23;;;;;;;6.06;37.46;99427.00;5093634;28;20195;-66
2022/01/30 09:47:34;;;;;;;5.30;4.80;;;;;;;6.04;36.21;99423.72;5093109;28;20196;-67
2022/01/30 09:50:02;;;;;;;7.83;5.57;;;;;;;6.09;35.58;99426.66;5093416;28;20617;-67
2022/01/30 09:52:29;;;;;;;5.83;4.67;;;;;;;6.09;34.30;99430.13;5093024;28;20601;-66
2022/01/30 09:54:56;;;;;;;11.17;6.37;;;;;;;6.28;34.15;99431.56;5093003;28;20256;-66
2022/01/30 09:57:22;;;;;;;26.13;8.23;;;;;;;6.39;34.60;99431.16;5093600;28;20248;-66
2022/01/30 09:59:49;;;;;;;25.80;10.30;;;;;;;6.67;34.85;99421.81;5092520;28;20197;-66
2022/01/30 10:02:18;;;;;;;19.43;10.23;;;;;;;6.65;35.62;99421.97;5092598;28;20191;-68
2022/01/30 10:04:45;;;;;;;16.67;9.37;;;;;;;6.81;36.31;99407.88;5092490;28;20693;-67
2022/01/30 10:07:14;;;;;;;17.80;9.27;;;;;;;6.90;36.16;99404.19;5093431;28;20253;-67
2022/01/30 10:09:45;;;;;;;26.43;11.47;;;;;;;7.02;36.22;99395.69;5092778;28;20627;-66
2022/01/30 10:12:16;;;;;;;10.63;7.57;;;;;;;7.07;36.67;99387.25;5092988;28;20217;-66
2022/01/30 10:14:51;;;;;;;9.43;6.27;;;;;;;7.08;35.69;99383.59;5093328;28;20230;-67
2022/01/30 10:17:32;;;;;;;5.40;4.90;;;;;;;7.16;35.79;99375.59;5093079;28;20558;-66
2022/01/30 10:20:10;;;;;;;6.73;4.63;;;;;;;7.24;35.43;99378.19;5092407;28;20724;-66
2022/01/30 10:22:48;;;;;;;6.17;4.27;;;;;;;7.26;35.73;99376.22;5092358;28;20193;-66
2022/01/30 10:25:19;;;;;;;8.10;5.00;;;;;;;7.39;35.55;99366.66;5092418;28;20278;-66
2022/01/30 10:27:46;;;;;;;8.10;5.50;;;;;;;7.46;35.30;99366.75;5093060;28;20196;-66
2022/01/30 10:30:13;;;;;;;7.57;5.77;;;;;;;7.62;35.38;99356.88;5092511;28;20684;-66
2022/01/30 10:32:54;;;;;;;8.33;5.33;;;;;;;7.93;34.90;99344.28;5092608;28;20193;-66
2022/01/30 10:35:21;;;;;;;12.23;5.73;;;;;;;8.08;34.98;99331.09;5093060;28;20227;-66
2022/01/30 10:37:48;;;;;;;7.17;5.70;;;;;;;8.05;34.55;99326.16;5093090;28;20191;-66
2022/01/30 10:40:18;;;;;;;5.50;5.00;;;;;;;8.17;34.56;99314.91;5092887;28;20195;-66
2022/01/30 10:42:47;;;;;;;6.80;6.20;;;;;;;8.24;34.38;99299.13;5092859;28;20609;-66
2022/01/30 10:45:16;;;;;;;8.17;5.30;;;;;;;8.34;34.25;99304.97;5092969;28;20231;-66
2022/01/30 10:47:44;;;;;;;6.03;5.30;;;;;;;8.32;33.53;99306.97;5092432;28;20610;-66
2022/01/30 10:50:15;;;;;;;11.83;7.27;;;;;;;8.40;34.34;99302.38;5092557;28;20244;-66
2022/01/30 10:52:54;;;;;;;8.50;7.67;;;;;;;8.74;33.54;99297.25;5092563;28;20242;-66
2022/01/30 10:55:38;;;;;;;10.57;7.20;;;;;;;8.90;33.05;99286.41;5092583;28;20195;-66
2022/01/30 10:58:06;;;;;;;7.50;4.73;;;;;;;9.14;32.38;99274.56;5092263;28;20183;-66
2022/01/30 11:00:38;;;;;;;5.07;4.17;;;;;;;9.43;31.01;99266.41;5092028;28;20195;-66
2022/01/30 11:03:07;;;;;;;6.27;4.53;;;;;;;9.64;31.89;99264.50;5091907;28;20658;-66
2022/01/30 11:05:55;;;;;;;4.77;4.23;;;;;;;9.91;30.93;99254.84;5092039;28;20289;-66
2022/01/30 11:08:25;;;;;;;3.93;3.63;;;;;;;9.89;30.09;99243.63;5093293;28;20290;-66
2022/01/30 11:11:08;;;;;;;4.80;4.40;;;;;;;9.98;30.04;99226.53;5092298;28;20195;-66
2022/01/30 11:13:47;;;;;;;5.33;4.83;;;;;;;10.25;30.81;99220.34;5092901;28;20191;-66
2022/01/30 11:19:02;;;;;;;10.37;4.10;;;;;;;10.73;30.27;99195.25;5092417;28;20684;-67
2022/01/30 11:21:29;;;;;;;4.33;3.93;;;;;;;10.59;30.84;99196.28;5092077;28;20195;-67
2022/01/30 11:23:59;;;;;;;7.93;4.80;;;;;;;10.70;30.88;99193.81;5092183;28;20316;-67
2022/01/30 11:26:26;;;;;;;9.90;3.23;;;;;;;10.78;30.35;99190.97;5092019;28;20328;-66
2022/01/30 11:28:53;;;;;;;6.30;3.70;;;;;;;10.90;30.58;99185.84;5091869;28;20250;-66
2022/01/30 11:31:20;;;;;;;3.73;3.40;;;;;;;11.17;30.79;99179.50;5092174;28;20192;-66
2022/01/30 11:33:50;;;;;;;3.47;3.03;;;;;;;11.46;30.30;99173.69;5091525;28;20257;-66
2022/01/30 11:36:18;;;;;;;12.20;3.60;;;;;;;11.67;30.49;99176.09;5092034;28;20196;-67
2022/01/30 11:38:45;;;;;;;6.27;3.50;;;;;;;11.92;30.17;99157.59;5092542;28;20246;-66
2022/01/30 11:41:13;;;;;;;3.43;3.20;;;;;;;12.03;30.36;99147.06;5092369;28;20197;-67
2022/01/30 11:43:40;;;;;;;4.40;3.50;;;;;;;11.95;30.48;99136.66;5091873;28;20297;-67
2022/01/30 11:46:17;;;;;;;12.90;3.57;;;;;;;12.04;30.46;99140.72;5091445;28;20193;-67
2022/01/30 11:49:04;;;;;;;4.67;3.50;;;;;;;11.94;31.06;99127.06;5091977;28;20228;-67
2022/01/30 11:51:48;;;;;;;3.37;3.17;;;;;;;11.95;31.21;99126.03;5091714;28;20214;-67
2022/01/30 11:54:33;;;;;;;8.67;4.00;;;;;;;12.10;31.29;99134.53;5092743;28;20189;-66
2022/01/30 11:57:00;;;;;;;3.50;3.20;;;;;;;12.06;31.55;99125.34;5091696;28;20178;-67
2022/01/30 11:59:36;;;;;;;4.37;3.40;;;;;;;12.26;31.53;99126.03;5091466;28;20571;-67
2022/01/30 12:02:23;;;;;;;3.30;3.10;;;;;;;12.32;31.78;99133.16;5091816;28;20280;-66
2022/01/30 12:04:55;;;;;;;5.17;2.93;;;;;;;12.51;31.71;99137.53;5091327;28;20697;-67
2022/01/30 12:07:45;;;;;;;3.73;3.43;;;;;;;12.66;31.38;99140.66;5091332;28;20277;-67
2022/01/30 12:10:32;;;;;;;3.63;2.37;;;;;;;12.86;31.37;99146.66;5088028;28;20195;-68
2022/01/30 12:13:01;;;;;;;7.70;2.47;;;;;;;12.85;31.08;99147.69;5091791;28;20217;-67
2022/01/30 12:15:38;;;;;;;2.53;2.30;;;;;;;12.98;31.18;99147.59;5091751;28;20643;-67
2022/01/30 12:18:06;;;;;;;3.13;1.97;;;;;;;13.04;30.97;99154.72;5091512;28;20238;-67
2022/01/30 12:20:54;;;;;;;2.13;2.00;;;;;;;13.05;31.05;99156.34;5091234;28;20578;-67